createdAt,value
2024-01-14T00:00:31.817Z,11.93
2024-01-14T00:02:59.076Z,13.18
2024-01-14T00:05:26.566Z,15.52
2024-01-14T00:07:54.498Z,12.88
2024-01-14T00:10:21.659Z,17.98
2024-01-14T00:12:48.863Z,15.25
2024-01-14T00:15:18.859Z,12.52
2024-01-14T00:17:46.959Z,15.00
2024-01-14T00:20:14.506Z,13.18
2024-01-14T00:22:41.626Z,12.93
2024-01-14T00:25:09.473Z,15.80
2024-01-14T00:27:36.767Z,14.90
2024-01-14T00:30:04.682Z,12.35
2024-01-14T00:32:31.935Z,12.57
2024-01-14T00:34:59.260Z,10.45
2024-01-14T00:37:26.447Z,14.90
2024-01-14T00:39:53.719Z,12.15
2024-01-14T00:42:20.928Z,15.77
2024-01-14T00:44:48.173Z,14.40
2024-01-14T00:47:15.432Z,10.55
2024-01-14T00:49:42.688Z,11.32
2024-01-14T00:52:09.941Z,13.80
2024-01-14T00:54:37.023Z,12.85
2024-01-14T00:57:05.326Z,13.45
2024-01-14T00:59:32.570Z,16.00
2024-01-14T01:01:59.841Z,14.23
2024-01-14T01:04:27.562Z,14.15
2024-01-14T01:06:54.686Z,14.55
2024-01-14T01:09:21.832Z,11.77
2024-01-14T01:11:49.067Z,13.23
2024-01-14T01:14:16.422Z,13.82
2024-01-14T01:16:44.703Z,10.30
2024-01-14T01:19:11.976Z,9.55
2024-01-14T01:21:39.089Z,8.68
2024-01-14T01:24:06.195Z,12.38
2024-01-14T01:26:33.355Z,14.82
2024-01-14T01:29:02.374Z,11.35
2024-01-14T01:31:35.477Z,11.98
2024-01-14T01:34:12.780Z,11.02
2024-01-14T01:36:40.266Z,9.70
2024-01-14T01:39:07.293Z,8.18
2024-01-14T01:41:34.381Z,13.48
2024-01-14T01:44:01.420Z,8.23
2024-01-14T01:46:28.544Z,9.35
2024-01-14T01:48:55.899Z,11.85
2024-01-14T01:51:23.767Z,11.88
2024-01-14T01:53:51.237Z,13.45
2024-01-14T01:56:20.176Z,15.27
2024-01-14T01:58:47.509Z,10.57
2024-01-14T02:01:15.657Z,12.18
2024-01-14T02:03:43.494Z,13.55
2024-01-14T02:06:12.459Z,12.75
2024-01-14T02:08:39.545Z,13.32
2024-01-14T02:11:06.721Z,14.15
2024-01-14T02:13:34.139Z,15.52
2024-01-14T02:16:02.246Z,12.05
2024-01-14T02:18:30.320Z,10.85
2024-01-14T02:20:58.932Z,13.70
2024-01-14T02:23:30.292Z,11.55
2024-01-14T02:25:57.354Z,11.63
2024-01-14T02:28:24.572Z,13.50
2024-01-14T02:30:52.499Z,14.60
2024-01-14T02:33:20.319Z,13.48
2024-01-14T02:35:47.416Z,13.35
2024-01-14T02:38:14.495Z,11.00
2024-01-14T02:40:41.662Z,11.90
2024-01-14T02:43:08.830Z,12.45
2024-01-14T02:45:36.171Z,11.40
2024-01-14T02:48:03.602Z,14.48
2024-01-14T02:50:30.805Z,13.20
2024-01-14T02:52:57.856Z,15.80
2024-01-14T02:55:24.915Z,18.83
2024-01-14T02:57:51.949Z,14.63
2024-01-14T03:00:19.134Z,13.93
2024-01-14T03:02:46.236Z,16.60
2024-01-14T03:05:13.420Z,16.33
2024-01-14T03:07:40.525Z,13.77
2024-01-14T03:10:08.866Z,16.80
2024-01-14T03:12:36.190Z,10.32
2024-01-14T03:15:03.535Z,15.02
2024-01-14T03:17:30.725Z,14.85
2024-01-14T03:19:58.140Z,16.35
2024-01-14T03:22:25.341Z,9.68
2024-01-14T03:24:52.390Z,15.88
2024-01-14T03:27:19.492Z,16.90
2024-01-14T03:29:46.548Z,12.43
2024-01-14T03:32:13.606Z,13.07
2024-01-14T03:34:40.634Z,11.07
2024-01-14T03:37:07.855Z,18.02
2024-01-14T03:39:35.064Z,15.02
2024-01-14T03:42:02.384Z,14.13
2024-01-14T03:44:29.532Z,12.38
2024-01-14T03:46:56.560Z,14.98
2024-01-14T03:49:23.591Z,13.02
2024-01-14T03:51:50.800Z,10.88
2024-01-14T03:54:17.862Z,14.50
2024-01-14T03:56:45.338Z,17.17
2024-01-14T03:59:12.374Z,16.58
2024-01-14T04:01:40.152Z,11.60
2024-01-14T04:04:07.328Z,17.20
2024-01-14T04:06:34.738Z,15.10
2024-01-14T04:09:02.299Z,17.00
2024-01-14T04:11:29.440Z,15.85
2024-01-14T04:13:56.591Z,14.93
2024-01-14T04:16:23.871Z,16.67
2024-01-14T04:18:51.153Z,13.80
2024-01-14T04:21:25.286Z,13.68
2024-01-14T04:23:52.616Z,18.27
2024-01-14T04:26:24.101Z,17.73
2024-01-14T04:28:51.777Z,14.73
2024-01-14T04:31:19.877Z,14.20
2024-01-14T04:33:48.295Z,14.25
2024-01-14T04:36:18.977Z,15.75
2024-01-14T04:38:46.242Z,13.00
2024-01-14T04:41:13.385Z,14.27
2024-01-14T04:43:40.388Z,13.20
2024-01-14T04:46:11.588Z,12.35
2024-01-14T04:48:39.105Z,13.43
2024-01-14T04:51:06.413Z,10.75
2024-01-14T04:53:33.516Z,14.82
2024-01-14T04:56:00.500Z,11.65
2024-01-14T04:58:27.602Z,11.20
2024-01-14T05:00:54.808Z,18.70
2024-01-14T05:03:22.959Z,17.23
2024-01-14T05:05:50.356Z,16.33
2024-01-14T05:08:18.474Z,11.63
2024-01-14T05:10:45.677Z,14.18
2024-01-14T05:13:13.199Z,14.68
2024-01-14T05:15:40.708Z,11.93
2024-01-14T05:18:08.056Z,12.95
2024-01-14T05:20:35.244Z,10.20
2024-01-14T05:23:05.530Z,13.43
2024-01-14T05:25:32.621Z,14.35
2024-01-14T05:27:59.646Z,9.88
2024-01-14T05:30:31.941Z,8.10
2024-01-14T05:32:59.180Z,12.60
2024-01-14T05:35:26.292Z,15.43
2024-01-14T05:37:53.374Z,9.55
2024-01-14T05:40:20.902Z,9.77
2024-01-14T05:42:47.964Z,10.77
2024-01-14T05:45:15.110Z,11.98
2024-01-14T05:47:42.989Z,10.80
2024-01-14T05:50:11.887Z,12.13
2024-01-14T05:52:39.065Z,11.55
2024-01-14T05:55:06.490Z,9.18
2024-01-14T05:57:33.614Z,9.25
2024-01-14T06:00:00.856Z,9.93
2024-01-14T06:02:28.764Z,8.65
2024-01-14T06:04:55.969Z,9.93
2024-01-14T06:07:24.244Z,11.15
2024-01-14T06:09:51.520Z,8.23
2024-01-14T06:12:18.741Z,8.35
2024-01-14T06:14:45.889Z,11.27
2024-01-14T06:17:12.989Z,11.90
2024-01-14T06:19:43.190Z,9.70
2024-01-14T06:22:10.345Z,9.98
2024-01-14T06:24:37.541Z,10.38
2024-01-14T06:27:05.078Z,13.30
2024-01-14T06:29:32.150Z,12.00
2024-01-14T06:32:02.057Z,9.85
2024-01-14T06:34:29.335Z,14.25
2024-01-14T06:36:56.427Z,10.85
2024-01-14T06:39:23.539Z,10.40
2024-01-14T06:41:51.199Z,12.60
2024-01-14T06:44:18.711Z,10.27
2024-01-14T06:46:45.920Z,16.55
2024-01-14T06:49:13.238Z,12.23
2024-01-14T06:51:47.280Z,9.52
2024-01-14T06:54:14.589Z,11.85
2024-01-14T06:56:46.233Z,11.27
2024-01-14T06:59:20.221Z,10.02
2024-01-14T07:01:47.501Z,14.82
2024-01-14T07:04:15.740Z,11.68
2024-01-14T07:06:43.412Z,10.50
2024-01-14T07:09:12.268Z,14.40
2024-01-14T07:11:39.648Z,15.65
2024-01-14T07:14:07.010Z,14.52
2024-01-14T07:16:34.308Z,13.25
2024-01-14T07:19:02.187Z,12.00
2024-01-14T07:21:29.830Z,7.05
2024-01-14T07:23:57.033Z,11.98
2024-01-14T07:26:25.058Z,10.77
2024-01-14T07:28:54.312Z,9.43
2024-01-14T07:31:23.122Z,11.80
2024-01-14T07:33:51.880Z,13.30
2024-01-14T07:36:20.176Z,11.75
2024-01-14T07:38:47.410Z,9.25
2024-01-14T07:41:14.751Z,12.10
2024-01-14T07:43:42.479Z,9.55
2024-01-14T07:46:10.399Z,10.93
2024-01-14T07:48:37.907Z,12.27
2024-01-14T07:51:05.851Z,8.73
2024-01-14T07:53:33.100Z,11.73
2024-01-14T07:56:02.093Z,7.78
2024-01-14T07:58:29.225Z,13.45
2024-01-14T08:01:01.933Z,7.75
2024-01-14T08:03:33.842Z,12.38
2024-01-14T08:06:01.764Z,10.68
2024-01-14T08:08:29.935Z,9.07
2024-01-14T08:10:57.199Z,8.88
2024-01-14T08:13:24.782Z,8.45
2024-01-14T08:15:58.131Z,9.15
2024-01-14T08:18:31.495Z,8.68
2024-01-14T08:20:59.630Z,8.05
2024-01-14T08:23:27.918Z,11.80
2024-01-14T08:25:55.056Z,10.77
2024-01-14T08:28:22.131Z,8.70
2024-01-14T08:30:50.312Z,11.70
2024-01-14T08:33:17.734Z,12.60
2024-01-14T08:35:46.192Z,8.98
2024-01-14T08:38:13.482Z,11.45
2024-01-14T08:40:40.546Z,9.20
2024-01-14T08:43:09.729Z,9.82
2024-01-14T08:45:37.156Z,8.65
2024-01-14T08:48:04.834Z,12.82
2024-01-14T08:50:31.984Z,10.55
2024-01-14T08:52:59.116Z,8.23
2024-01-14T08:55:26.242Z,8.50
2024-01-14T08:57:53.375Z,10.32
2024-01-14T09:00:20.595Z,8.85
2024-01-14T09:02:48.188Z,7.82
2024-01-14T09:05:16.479Z,7.60
2024-01-14T09:07:43.667Z,7.45
2024-01-14T09:10:11.729Z,10.85
2024-01-14T09:12:38.977Z,9.82
2024-01-14T09:15:07.064Z,8.02
2024-01-14T09:17:34.223Z,7.43
2024-01-14T09:20:01.802Z,8.50
2024-01-14T09:22:29.244Z,10.10
2024-01-14T09:24:56.638Z,9.75
2024-01-14T09:27:25.281Z,8.55
2024-01-14T09:29:52.320Z,7.63
2024-01-14T09:32:19.388Z,12.02
2024-01-14T09:34:46.561Z,8.18
2024-01-14T09:37:15.009Z,10.82
2024-01-14T09:39:43.139Z,6.80
2024-01-14T09:42:34.405Z,6.20
2024-01-14T09:45:03.457Z,7.80
2024-01-14T09:47:34.424Z,5.75
2024-01-14T09:50:02.293Z,7.18
2024-01-14T09:52:35.508Z,4.90
2024-01-14T09:55:02.814Z,6.18
2024-01-14T09:57:33.667Z,6.45
2024-01-14T10:00:06.218Z,7.10
2024-01-14T10:02:37.520Z,3.95
2024-01-14T10:05:05.489Z,4.38
2024-01-14T10:07:34.759Z,4.90
2024-01-14T10:10:02.217Z,4.97
2024-01-14T10:12:29.685Z,6.43
2024-01-14T10:15:01.798Z,3.85
2024-01-14T10:17:29.293Z,5.53
2024-01-14T10:19:59.296Z,5.15
2024-01-14T10:22:30.582Z,4.68
2024-01-14T10:24:58.213Z,4.45
2024-01-14T10:27:35.503Z,3.75
2024-01-14T10:30:12.608Z,5.13
2024-01-14T10:35:29.848Z,3.17
2024-01-14T10:37:58.503Z,2.97
2024-01-14T10:40:25.958Z,5.00
2024-01-14T10:42:53.800Z,5.05
2024-01-14T10:45:21.269Z,6.53
2024-01-14T10:47:49.958Z,7.88
2024-01-14T10:50:22.693Z,6.82
2024-01-14T10:52:56.991Z,7.90
2024-01-14T10:55:44.598Z,10.32
2024-01-14T10:58:31.100Z,12.10
2024-01-14T11:01:03.199Z,9.75
2024-01-14T11:03:31.596Z,11.73
2024-01-14T11:06:00.019Z,14.18
2024-01-14T11:08:28.516Z,11.27
2024-01-14T11:10:56.656Z,14.75
2024-01-14T11:13:31.372Z,13.68
2024-01-14T11:16:19.494Z,15.63
2024-01-14T11:19:01.677Z,13.68
2024-01-14T11:22:29.364Z,13.55
2024-01-14T11:25:07.239Z,12.52
2024-01-14T11:27:35.614Z,14.63
2024-01-14T11:30:02.931Z,13.07
2024-01-14T11:32:30.682Z,12.23
2024-01-14T11:35:01.359Z,11.60
2024-01-14T11:37:38.435Z,9.75
2024-01-14T11:40:12.748Z,11.55
2024-01-14T11:43:03.481Z,9.38
2024-01-14T11:45:30.426Z,9.80
2024-01-14T11:47:58.345Z,7.53
2024-01-14T11:50:27.184Z,10.20
2024-01-14T11:52:57.809Z,9.90
2024-01-14T11:55:35.061Z,9.85
2024-01-14T11:58:15.246Z,11.05
2024-01-14T12:00:49.058Z,10.43
2024-01-14T12:03:17.442Z,10.45
2024-01-14T12:05:45.903Z,10.60
2024-01-14T12:08:14.788Z,9.55
2024-01-14T12:10:42.758Z,9.80
2024-01-14T12:13:10.833Z,8.38
2024-01-14T12:15:39.735Z,9.18
2024-01-14T12:18:08.986Z,8.55
2024-01-14T12:20:36.458Z,9.65
2024-01-14T12:23:08.859Z,8.38
2024-01-14T12:25:37.444Z,8.93
2024-01-14T12:28:05.394Z,9.75
2024-01-14T12:30:37.369Z,12.48
2024-01-14T12:33:14.715Z,12.18
2024-01-14T12:35:42.975Z,11.48
2024-01-14T12:38:10.397Z,12.52
2024-01-14T12:40:38.558Z,12.93
2024-01-14T12:43:08.822Z,13.95
2024-01-14T12:45:36.575Z,13.38
2024-01-14T12:48:06.169Z,14.00
2024-01-14T12:50:39.840Z,14.35
2024-01-14T12:53:13.851Z,12.65
2024-01-14T12:55:42.494Z,14.23
2024-01-14T12:58:10.136Z,17.73
2024-01-14T13:00:40.037Z,14.15
2024-01-14T13:03:07.869Z,14.25
2024-01-14T13:05:36.150Z,17.30
2024-01-14T13:08:06.406Z,18.50
2024-01-14T13:10:33.983Z,17.92
2024-01-14T13:13:01.204Z,18.13
2024-01-14T13:15:28.587Z,16.45
2024-01-14T13:17:57.388Z,18.52
2024-01-14T13:20:24.614Z,16.02
2024-01-14T13:22:51.760Z,16.70
2024-01-14T13:25:19.010Z,15.98
2024-01-14T13:27:46.476Z,16.10
2024-01-14T13:30:14.504Z,14.07
2024-01-14T13:32:41.949Z,14.02
2024-01-14T13:35:10.759Z,12.77
2024-01-14T13:37:38.954Z,14.35
2024-01-14T13:40:08.091Z,14.55
2024-01-14T13:42:38.056Z,14.38
2024-01-14T13:45:08.555Z,14.15
2024-01-14T13:47:36.256Z,12.40
2024-01-14T13:50:05.152Z,13.18
2024-01-14T13:52:32.496Z,14.48
2024-01-14T13:54:59.893Z,11.98
2024-01-14T13:57:27.098Z,10.70
2024-01-14T13:59:54.205Z,10.50
2024-01-14T14:02:21.572Z,9.73
2024-01-14T14:04:49.112Z,10.18
2024-01-14T14:07:16.654Z,9.27
2024-01-14T14:09:44.157Z,8.55
2024-01-14T14:12:11.624Z,7.10
2024-01-14T14:14:38.908Z,9.27
2024-01-14T14:17:06.283Z,6.75
2024-01-14T14:19:35.971Z,7.88
2024-01-14T14:22:03.261Z,9.73
2024-01-14T14:24:34.312Z,8.18
2024-01-14T14:27:02.597Z,8.35
2024-01-14T14:29:29.877Z,8.05
2024-01-14T14:31:57.728Z,7.70
2024-01-14T14:34:26.289Z,8.52
2024-01-14T14:36:54.614Z,8.57
2024-01-14T14:39:21.842Z,6.28
2024-01-14T14:41:49.238Z,3.88
2024-01-14T14:44:16.405Z,5.03
2024-01-14T14:46:43.702Z,5.13
2024-01-14T14:49:11.440Z,4.80
2024-01-14T14:51:42.214Z,4.50
2024-01-14T14:54:11.518Z,3.53
2024-01-14T14:56:40.080Z,4.60
2024-01-14T14:59:07.412Z,4.82
2024-01-14T15:01:42.281Z,5.15
2024-01-14T15:04:15.070Z,6.78
2024-01-14T15:06:44.142Z,5.05
2024-01-14T15:09:12.660Z,4.53
2024-01-14T15:11:41.481Z,5.68
2024-01-14T15:14:11.194Z,6.25
2024-01-14T15:16:38.723Z,4.13
2024-01-14T15:19:06.403Z,6.45
2024-01-14T15:21:34.341Z,6.25
2024-01-14T15:24:01.673Z,5.78
2024-01-14T15:26:29.225Z,4.68
2024-01-14T15:28:56.384Z,4.70
2024-01-14T15:31:24.142Z,6.68
2024-01-14T15:33:51.952Z,6.55
2024-01-14T15:36:20.869Z,8.02
2024-01-14T15:38:48.700Z,6.07
2024-01-14T15:41:16.111Z,3.80
2024-01-14T15:43:43.543Z,6.35
2024-01-14T15:46:11.347Z,6.75
2024-01-14T15:48:41.242Z,5.15
2024-01-14T15:51:12.791Z,6.55
2024-01-14T15:53:43.231Z,5.50
2024-01-14T15:56:10.889Z,4.45
2024-01-14T15:58:41.714Z,3.92
2024-01-14T16:01:12.829Z,8.98
2024-01-14T16:03:46.914Z,5.40
2024-01-14T16:06:16.455Z,7.18
2024-01-14T16:08:47.839Z,4.55
2024-01-14T16:11:16.015Z,5.72
2024-01-14T16:16:10.983Z,4.43
2024-01-14T16:18:38.343Z,6.75
2024-01-14T16:21:07.469Z,6.75
2024-01-14T16:23:37.863Z,7.82
2024-01-14T16:26:06.288Z,4.70
2024-01-14T16:28:33.498Z,10.23
2024-01-14T16:31:10.071Z,7.43
2024-01-14T16:33:46.079Z,6.82
2024-01-14T16:36:18.353Z,8.15
2024-01-14T16:38:47.392Z,8.18
2024-01-14T16:41:14.921Z,9.30
2024-01-14T16:43:43.982Z,9.27
2024-01-14T16:46:11.006Z,10.13
2024-01-14T16:48:39.362Z,8.23
2024-01-14T16:51:11.816Z,6.70
2024-01-14T16:53:41.483Z,8.38
2024-01-14T16:56:14.134Z,9.50
2024-01-14T16:58:43.616Z,9.80
2024-01-14T17:01:16.257Z,9.07
2024-01-14T17:03:50.596Z,6.75
2024-01-14T17:06:19.681Z,5.90
2024-01-14T17:08:49.152Z,5.22
2024-01-14T17:11:21.586Z,6.45
2024-01-14T17:13:49.913Z,6.90
2024-01-14T17:16:26.524Z,6.88
2024-01-14T17:18:59.317Z,7.93
2024-01-14T17:21:27.310Z,8.18
2024-01-14T17:23:54.672Z,8.30
2024-01-14T17:26:22.137Z,9.98
2024-01-14T17:28:49.536Z,11.50
2024-01-14T17:31:18.139Z,8.48
2024-01-14T17:33:48.545Z,8.57
2024-01-14T17:36:17.932Z,8.73
2024-01-14T17:38:47.744Z,5.45
2024-01-14T17:41:15.496Z,8.13
2024-01-14T17:43:42.778Z,7.18
2024-01-14T17:46:10.821Z,7.75
2024-01-14T17:48:41.136Z,8.77
2024-01-14T17:51:11.374Z,9.73
2024-01-14T17:53:39.673Z,7.95
2024-01-14T17:56:07.283Z,9.45
2024-01-14T17:58:34.784Z,5.03
2024-01-14T18:01:10.545Z,7.38
2024-01-14T18:03:40.619Z,6.22
2024-01-14T18:06:09.162Z,7.80
2024-01-14T18:08:36.486Z,12.93
2024-01-14T18:11:03.990Z,8.98
2024-01-14T18:13:31.123Z,8.55
2024-01-14T18:16:01.115Z,7.60
2024-01-14T18:18:28.344Z,9.73
2024-01-14T18:20:57.252Z,7.78
2024-01-14T18:23:25.743Z,8.00
2024-01-14T18:25:52.864Z,8.63
2024-01-14T18:28:19.989Z,7.95
2024-01-14T18:30:47.243Z,8.60
2024-01-14T18:33:15.027Z,10.20
2024-01-14T18:35:44.429Z,8.02
2024-01-14T18:38:16.879Z,9.50
2024-01-14T18:40:44.540Z,8.32
2024-01-14T18:43:13.088Z,11.20
2024-01-14T18:45:40.502Z,8.93
2024-01-14T18:48:08.824Z,7.38
2024-01-14T18:50:37.098Z,9.35
2024-01-14T18:53:06.089Z,8.07
2024-01-14T18:55:38.905Z,8.68
2024-01-14T18:58:08.418Z,8.25
2024-01-14T19:00:35.773Z,10.32
2024-01-14T19:03:03.458Z,11.23
2024-01-14T19:05:32.393Z,10.00
2024-01-14T19:07:59.521Z,11.60
2024-01-14T19:10:26.938Z,10.52
2024-01-14T19:12:57.069Z,9.63
2024-01-14T19:15:24.559Z,10.00
2024-01-14T19:17:51.833Z,10.88
2024-01-14T19:20:19.135Z,9.27
2024-01-14T19:22:46.455Z,10.23
2024-01-14T19:25:13.822Z,8.15
2024-01-14T19:27:41.028Z,13.02
2024-01-14T19:30:09.328Z,11.35
2024-01-14T19:32:36.618Z,10.70
2024-01-14T19:35:03.957Z,7.32
2024-01-14T19:37:33.832Z,9.60
2024-01-14T19:40:02.384Z,9.95
2024-01-14T19:42:30.219Z,9.45
2024-01-14T19:44:58.352Z,9.57
2024-01-14T19:47:25.404Z,10.70
2024-01-14T19:49:52.781Z,13.52
2024-01-14T19:52:19.992Z,10.40
2024-01-14T19:54:47.243Z,11.32
2024-01-14T19:57:14.904Z,14.63
2024-01-14T19:59:42.180Z,8.63
2024-01-14T20:02:09.226Z,7.65
2024-01-14T20:04:36.244Z,7.93
2024-01-14T20:07:03.782Z,9.55
2024-01-14T20:09:31.028Z,8.57
2024-01-14T20:12:01.138Z,7.70
2024-01-14T20:14:28.893Z,8.52
2024-01-14T20:17:06.253Z,8.23
2024-01-14T20:19:33.509Z,8.10
2024-01-14T20:22:00.720Z,12.52
2024-01-14T20:24:30.767Z,13.07
2024-01-14T20:26:57.846Z,10.43
2024-01-14T20:29:24.932Z,9.40
2024-01-14T20:31:52.050Z,10.63
2024-01-14T20:34:24.048Z,8.13
2024-01-14T20:36:51.952Z,6.55
2024-01-14T20:39:20.343Z,9.30
2024-01-14T20:41:47.691Z,11.65
2024-01-14T20:44:14.995Z,7.15
2024-01-14T20:46:42.233Z,11.45
2024-01-14T20:49:09.650Z,9.48
2024-01-14T20:51:37.360Z,7.50
2024-01-14T20:54:04.809Z,6.18
2024-01-14T20:56:32.144Z,7.45
2024-01-14T20:58:59.134Z,8.18
2024-01-14T21:01:35.179Z,9.05
2024-01-14T21:04:03.613Z,8.88
2024-01-14T21:06:30.955Z,8.05
2024-01-14T21:08:58.424Z,4.60
2024-01-14T21:11:26.822Z,8.18
2024-01-14T21:13:56.442Z,7.57
2024-01-14T21:16:23.601Z,7.25
2024-01-14T21:18:50.766Z,7.03
2024-01-14T21:21:17.884Z,5.18
2024-01-14T21:23:45.103Z,9.40
2024-01-14T21:26:12.237Z,6.75
2024-01-14T21:28:39.294Z,7.28
2024-01-14T21:31:06.412Z,6.32
2024-01-14T21:33:33.672Z,8.07
2024-01-14T21:36:04.018Z,7.65
2024-01-14T21:38:32.247Z,6.40
2024-01-14T21:40:59.817Z,6.65
2024-01-14T21:43:27.181Z,4.80
2024-01-14T21:45:54.639Z,6.32
2024-01-14T21:48:21.972Z,5.28
2024-01-14T21:50:50.077Z,7.65
2024-01-14T21:53:17.556Z,5.97
2024-01-14T21:55:47.056Z,5.97
2024-01-14T21:58:14.215Z,5.30
2024-01-14T22:00:41.738Z,5.53
2024-01-14T22:03:09.221Z,7.07
2024-01-14T22:05:36.653Z,5.03
2024-01-14T22:08:04.080Z,7.88
2024-01-14T22:10:31.200Z,6.10
2024-01-14T22:12:58.254Z,7.40
2024-01-14T22:15:25.340Z,7.45
2024-01-14T22:17:52.425Z,10.13
2024-01-14T22:20:19.671Z,10.00
2024-01-14T22:22:46.771Z,9.25
2024-01-14T22:25:13.946Z,8.57
2024-01-14T22:27:41.053Z,7.85
2024-01-14T22:30:13.336Z,10.73
2024-01-14T22:32:40.754Z,13.05
2024-01-14T22:35:08.576Z,8.50
2024-01-14T22:37:35.970Z,14.60
2024-01-14T22:40:03.992Z,10.73
2024-01-14T22:42:33.220Z,13.55
2024-01-14T22:45:00.388Z,13.38
2024-01-14T22:47:27.754Z,13.80
2024-01-14T22:49:55.039Z,15.23
2024-01-14T22:52:22.326Z,8.40
2024-01-14T22:54:49.585Z,13.52
2024-01-14T22:57:17.089Z,18.05
2024-01-14T22:59:44.178Z,12.30
2024-01-14T23:02:12.406Z,13.43
2024-01-14T23:04:39.640Z,16.75
2024-01-14T23:07:06.811Z,12.60
2024-01-14T23:09:34.294Z,12.43
2024-01-14T23:12:01.483Z,16.33
2024-01-14T23:14:28.604Z,14.70
2024-01-14T23:16:55.961Z,11.20
2024-01-14T23:19:23.288Z,12.00
2024-01-14T23:21:50.575Z,17.75
2024-01-14T23:24:17.690Z,16.75
2024-01-14T23:26:44.725Z,17.60
2024-01-14T23:29:11.719Z,14.20
2024-01-14T23:31:38.902Z,15.18
2024-01-14T23:34:06.197Z,15.88
2024-01-14T23:36:33.378Z,15.52
2024-01-14T23:39:00.936Z,17.45
2024-01-14T23:41:28.046Z,16.20
2024-01-14T23:43:55.062Z,17.48
2024-01-14T23:46:22.179Z,16.00
2024-01-14T23:48:54.206Z,14.45
2024-01-14T23:51:22.213Z,14.30
2024-01-14T23:53:49.337Z,13.43
2024-01-14T23:56:16.609Z,20.15
2024-01-14T23:58:43.612Z,18.35
